Terminal Aerodrome Forecast
Issued by NWS

Home | Current Version | Previous Version | Text Only | Print | Product List | Glossary On
Versions: 1 2 3 4 5 6 7 8 9 10 11 12 13 14
000
FTUS45 KVEF 252300
TAFEED
TAF
KEED 252320Z 2600/2624 23010G18KT P6SM SCT100 SCT150
     FM260300 22010KT P6SM SCT150
     FM261800 19010G16KT P6SM SCT100 BKN150=

USA.gov is the U.S. government's official web portal to all federal, state and local government web resources and services.